Terminal Aerodrome Forecast
Issued by NWS

Home | Current Version | Previous Version | Text Only | Print | Product List | Glossary On
Versions: 1 2 3 4 5 6 7 8 9 10 11 12 13 14 15 16 17 18 19 20 21
000
FTUS42 KGSP 252339
TAFAND
TAF
KAND 252339Z 2600/2624 22005KT P6SM BKN250
     FM260300 23010KT P6SM BKN040
     FM260900 24010KT P6SM VCTS BKN020CB
     FM261200 25011G19KT P6SM SCT080
     FM262200 30008KT P6SM VCTS BKN040CB=

USA.gov is the U.S. government's official web portal to all federal, state and local government web resources and services.